Time;durP1;ratioP1;P1;durP2;ratioP2;P2;SDS_P1;SDS_P2;PMS_P1;PMS_P2;Temp;Humidity;BMP_temperature;BMP_pressure;BME280_temperature;BME280_humidity;BME280_pressure;Samples;Min_cycle;Max_cycle;Signal;HPM_P1;HPM_P2
2023/10/03 00:00:24;;;;;;;45.55;15.57;;;;;13.00;96642.00;;;;8379971;28;20207;-67
2023/10/03 00:04:28;;;;;;;50.10;16.35;;;;;13.00;96639.00;;;;8383573;28;20237;-67
2023/10/03 00:08:31;;;;;;;62.88;18.40;;;;;13.10;96634.00;;;;8379176;28;20200;-67
2023/10/03 00:12:36;;;;;;;48.67;15.10;;;;;13.10;96632.00;;;;8366833;28;20242;-67
2023/10/03 00:16:39;;;;;;;49.95;14.93;;;;;13.00;96625.00;;;;8376979;28;20564;-67
2023/10/03 00:20:43;;;;;;;50.33;15.45;;;;;12.90;96618.00;;;;8383507;28;20199;-68
2023/10/03 00:24:47;;;;;;;55.85;17.83;;;;;12.80;96615.00;;;;8384039;28;20234;-67
2023/10/03 00:28:52;;;;;;;53.55;16.70;;;;;12.80;96612.00;;;;8376726;28;20239;-67
2023/10/03 00:32:57;;;;;;;64.10;16.73;;;;;12.70;96615.00;;;;8378780;28;20215;-68
2023/10/03 00:37:01;;;;;;;40.85;14.13;;;;;12.70;96605.00;;;;8384789;28;20415;-67
2023/10/03 00:41:05;;;;;;;46.28;15.38;;;;;12.60;96612.00;;;;8379233;28;20656;-68
2023/10/03 00:45:11;;;;;;;51.40;13.80;;;;;12.50;96609.00;;;;8373026;28;20208;-67
2023/10/03 00:49:16;;;;;;;51.22;15.60;;;;;12.50;96598.00;;;;8368038;28;20289;-67
2023/10/03 00:53:19;;;;;;;53.80;15.75;;;;;12.40;96602.00;;;;8374609;28;20655;-68
2023/10/03 00:57:22;;;;;;;58.38;17.95;;;;;12.40;96602.00;;;;8372721;28;21798;-68
2023/10/03 01:01:33;;;;;;;54.50;16.38;;;;;12.30;96601.00;;;;8376428;28;20274;-67
2023/10/03 01:05:37;;;;;;;48.88;15.57;;;;;12.30;96596.00;;;;8374386;28;20237;-67
2023/10/03 01:09:41;;;;;;;42.08;14.27;;;;;12.30;96589.00;;;;8372209;28;20229;-68
2023/10/03 01:13:47;;;;;;;49.85;15.43;;;;;12.40;96584.00;;;;8379134;28;20199;-68
2023/10/03 01:17:57;;;;;;;45.42;14.82;;;;;12.50;96583.00;;;;8388190;28;20229;-68
2023/10/03 01:22:02;;;;;;;54.72;15.70;;;;;12.40;96580.00;;;;8385280;28;20331;-68
2023/10/03 01:26:09;;;;;;;54.72;14.98;;;;;12.30;96580.00;;;;8384607;28;20695;-68
2023/10/03 01:30:13;;;;;;;46.75;15.25;;;;;12.30;96574.00;;;;8382516;28;20205;-69
2023/10/03 01:34:16;;;;;;;45.60;15.70;;;;;12.20;96574.00;;;;8379001;28;20244;-69
2023/10/03 01:38:20;;;;;;;52.47;16.08;;;;;12.20;96564.00;;;;8396914;28;20758;-68
2023/10/03 01:42:24;;;;;;;59.17;15.68;;;;;12.20;96558.00;;;;8378033;28;20207;-68
2023/10/03 01:46:27;;;;;;;66.65;16.40;;;;;12.00;96555.00;;;;8380710;28;20288;-69
2023/10/03 01:50:33;;;;;;;60.83;16.35;;;;;12.00;96554.00;;;;8386944;28;20275;-68
2023/10/03 01:54:38;;;;;;;64.82;18.52;;;;;12.00;96546.00;;;;8380501;28;20215;-68
2023/10/03 01:58:43;;;;;;;58.72;17.52;;;;;12.00;96541.00;;;;8381790;28;20231;-69
2023/10/03 02:02:46;;;;;;;55.10;17.25;;;;;12.00;96546.00;;;;8381941;28;20324;-68
2023/10/03 02:06:51;;;;;;;66.80;18.20;;;;;12.00;96543.00;;;;8384362;28;20219;-68
2023/10/03 02:10:54;;;;;;;49.03;16.30;;;;;12.00;96533.00;;;;8386623;28;20217;-68
2023/10/03 02:15:00;;;;;;;58.13;16.50;;;;;12.00;96536.00;;;;8380765;28;20297;-69
2023/10/03 02:19:06;;;;;;;66.57;17.55;;;;;12.10;96535.00;;;;8385308;28;20277;-68
2023/10/03 02:23:10;;;;;;;57.83;16.90;;;;;12.10;96528.00;;;;8389486;28;20304;-68
2023/10/03 02:27:14;;;;;;;54.72;16.83;;;;;12.10;96526.00;;;;8385126;28;20195;-68
2023/10/03 02:31:20;;;;;;;58.58;15.25;;;;;12.00;96522.00;;;;8380821;28;20659;-69
2023/10/03 02:35:25;;;;;;;46.63;14.32;;;;;11.90;96521.00;;;;8380860;28;20198;-69
2023/10/03 02:39:35;;;;;;;57.08;16.10;;;;;11.80;96509.00;;;;8385148;28;20226;-68
2023/10/03 02:43:42;;;;;;;58.17;16.50;;;;;11.80;96512.00;;;;8382741;28;20722;-69
2023/10/03 02:47:48;;;;;;;61.45;17.38;;;;;11.70;96501.00;;;;8379368;28;20205;-68
2023/10/03 02:51:51;;;;;;;65.53;17.17;;;;;11.70;96496.00;;;;8382583;28;20228;-68
2023/10/03 02:55:55;;;;;;;62.50;17.17;;;;;11.70;96492.00;;;;8384775;28;20233;-68
2023/10/03 02:59:58;;;;;;;67.53;18.10;;;;;11.60;96486.00;;;;8383542;28;20227;-68
2023/10/03 03:04:17;;;;;;;77.32;18.85;;;;;11.40;96473.00;;;;8352509;22;20636;-68
2023/10/03 03:08:27;;;;;;;88.00;18.20;;;;;11.40;96476.00;;;;8311670;28;20601;-68
2023/10/03 03:12:35;;;;;;;49.40;16.55;;;;;11.40;96467.00;;;;8315323;28;20201;-68
2023/10/03 03:16:40;;;;;;;72.30;17.85;;;;;11.30;96462.00;;;;8316440;28;20208;-69
2023/10/03 03:20:49;;;;;;;79.47;17.52;;;;;11.20;96462.00;;;;8315048;28;20240;-69
2023/10/03 03:24:53;;;;;;;59.80;18.08;;;;;11.20;96467.00;;;;8318080;28;20208;-69
2023/10/03 03:28:56;;;;;;;60.22;17.92;;;;;11.20;96459.00;;;;8312405;28;20893;-69
2023/10/03 03:32:59;;;;;;;65.57;18.35;;;;;11.20;96459.00;;;;8312091;28;20655;-68
2023/10/03 03:37:21;;;;;;;327.25;23.88;;;;;11.30;96463.00;;;;8314542;28;20214;-69
2023/10/03 03:41:24;;;;;;;64.38;18.88;;;;;11.20;96460.00;;;;8307880;28;20817;-69
2023/10/03 03:45:28;;;;;;;74.25;18.88;;;;;11.10;96460.00;;;;8310871;28;20593;-68
2023/10/03 03:49:31;;;;;;;59.22;18.25;;;;;11.10;96460.00;;;;8313147;28;20238;-68
2023/10/03 03:53:35;;;;;;;75.18;18.80;;;;;11.20;96467.00;;;;8313397;28;20208;-68
2023/10/03 03:57:39;;;;;;;90.47;18.05;;;;;11.30;96461.00;;;;8311208;28;20199;-68
2023/10/03 04:01:42;;;;;;;49.75;15.15;;;;;11.20;96458.00;;;;8307591;28;20672;-67
2023/10/03 04:05:47;;;;;;;62.53;17.13;;;;;11.20;96450.00;;;;8273497;28;20211;-68
2023/10/03 04:09:52;;;;;;;77.32;19.40;;;;;11.10;96453.00;;;;8275559;28;20677;-68
2023/10/03 04:13:55;;;;;;;81.05;18.95;;;;;11.10;96456.00;;;;8277577;28;20198;-68
2023/10/03 04:17:58;;;;;;;62.88;18.08;;;;;11.00;96455.00;;;;8277864;28;20225;-68
2023/10/03 04:22:02;;;;;;;70.35;18.80;;;;;11.00;96453.00;;;;8280179;28;20563;-68
2023/10/03 04:26:07;;;;;;;80.72;20.25;;;;;11.00;96451.00;;;;8277651;28;20210;-67
2023/10/03 04:30:19;;;;;;;74.90;18.98;;;;;11.00;96452.00;;;;8282303;28;20297;-68
2023/10/03 04:34:23;;;;;;;64.72;18.40;;;;;11.00;96452.00;;;;8277978;28;20883;-68
2023/10/03 04:38:26;;;;;;;58.42;18.33;;;;;11.00;96453.00;;;;8283947;28;20686;-69
2023/10/03 04:42:31;;;;;;;64.47;17.02;;;;;11.20;96446.00;;;;8273025;28;20206;-69
2023/10/03 04:46:34;;;;;;;69.53;19.05;;;;;11.10;96443.00;;;;8280320;28;20657;-69
2023/10/03 04:50:39;;;;;;;70.80;19.08;;;;;11.10;96450.00;;;;8297102;28;20198;-67
2023/10/03 04:54:42;;;;;;;65.70;17.52;;;;;11.10;96443.00;;;;8290322;28;20553;-68
2023/10/03 04:58:48;;;;;;;78.18;19.10;;;;;11.10;96454.00;;;;8287672;28;20249;-67
2023/10/03 05:02:53;;;;;;;75.88;18.90;;;;;11.10;96449.00;;;;8289888;28;20225;-68
2023/10/03 05:06:56;;;;;;;84.53;19.55;;;;;11.10;96447.00;;;;8285352;28;20650;-68
2023/10/03 05:11:03;;;;;;;64.17;19.00;;;;;11.10;96455.00;;;;8286107;28;20912;-67
2023/10/03 05:15:08;;;;;;;88.57;19.73;;;;;11.10;96445.00;;;;8287180;28;20301;-67
2023/10/03 05:19:11;;;;;;;448.95;22.73;;;;;11.10;96446.00;;;;8283936;28;20917;-68
2023/10/03 05:23:15;;;;;;;341.15;22.70;;;;;11.20;96449.00;;;;8278023;28;20207;-68
2023/10/03 05:27:18;;;;;;;93.78;19.13;;;;;11.10;96445.00;;;;8275444;28;20194;-67
2023/10/03 05:31:23;;;;;;;62.47;17.65;;;;;11.20;96450.00;;;;8281785;28;20206;-69
2023/10/03 05:35:26;;;;;;;242.55;26.30;;;;;11.30;96451.00;;;;8281462;28;20202;-68
2023/10/03 05:39:29;;;;;;;89.75;20.45;;;;;11.40;96458.00;;;;8282507;28;21049;-69
2023/10/03 05:43:33;;;;;;;59.80;17.70;;;;;11.50;96461.00;;;;8279450;28;20201;-68
2023/10/03 05:47:37;;;;;;;51.40;16.17;;;;;11.60;96455.00;;;;8280347;28;20282;-67
2023/10/03 05:51:41;;;;;;;77.78;17.65;;;;;11.80;96451.00;;;;8288403;28;20286;-68
2023/10/03 05:55:45;;;;;;;64.13;19.00;;;;;11.90;96456.00;;;;8275991;28;20308;-68
2023/10/03 05:59:50;;;;;;;63.78;18.20;;;;;12.10;96461.00;;;;8274404;28;20232;-68
2023/10/03 06:03:56;;;;;;;65.10;19.23;;;;;12.20;96449.00;;;;8275989;28;20261;-68
2023/10/03 06:08:02;;;;;;;68.57;18.80;;;;;12.40;96463.00;;;;8278320;28;20208;-68
2023/10/03 06:12:05;;;;;;;52.67;17.95;;;;;12.60;96463.00;;;;8280312;28;20307;-68
2023/10/03 06:16:12;;;;;;;55.70;17.77;;;;;12.70;96463.00;;;;8277121;28;20213;-68
2023/10/03 06:20:17;;;;;;;58.70;16.65;;;;;12.80;96458.00;;;;8271996;28;20689;-69
2023/10/03 06:24:20;;;;;;;60.03;18.38;;;;;12.90;96460.00;;;;8270418;28;20200;-69
2023/10/03 06:28:23;;;;;;;53.88;16.08;;;;;13.00;96463.00;;;;8276606;28;20211;-69
2023/10/03 06:32:26;;;;;;;54.28;16.75;;;;;13.10;96458.00;;;;8270945;28;20704;-69
2023/10/03 06:36:31;;;;;;;59.28;16.73;;;;;13.20;96449.00;;;;8275643;28;20198;-69
2023/10/03 06:40:34;;;;;;;46.65;17.05;;;;;13.30;96453.00;;;;8270718;28;21263;-68
2023/10/03 06:44:38;;;;;;;50.95;16.35;;;;;13.50;96464.00;;;;8274974;28;20283;-66
2023/10/03 06:48:41;;;;;;;50.67;17.02;;;;;13.80;96463.00;;;;8274431;28;20204;-67
2023/10/03 06:52:47;;;;;;;58.85;17.23;;;;;14.10;96457.00;;;;8277690;28;20256;-67
2023/10/03 06:56:50;;;;;;;54.88;16.42;;;;;14.50;96460.00;;;;8271834;28;20203;-66
2023/10/03 07:00:54;;;;;;;42.15;15.88;;;;;14.90;96453.00;;;;8266058;28;20339;-68
2023/10/03 07:04:57;;;;;;;52.90;17.23;;;;;15.60;96451.00;;;;8268533;28;20241;-67
2023/10/03 07:09:07;;;;;;;47.63;16.05;;;;;16.20;96461.00;;;;8272778;28;20194;-68
2023/10/03 07:13:12;;;;;;;40.65;14.43;;;;;16.80;96459.00;;;;8264724;28;20202;-67
2023/10/03 07:17:15;;;;;;;44.13;15.15;;;;;17.20;96458.00;;;;8272272;28;20199;-67
2023/10/03 07:21:18;;;;;;;42.08;14.90;;;;;17.50;96466.00;;;;8271978;28;20320;-67
2023/10/03 07:25:23;;;;;;;43.25;15.32;;;;;17.70;96465.00;;;;8268817;28;20292;-69
2023/10/03 07:29:26;;;;;;;44.72;15.02;;;;;17.70;96474.00;;;;8267569;28;20236;-67
2023/10/03 07:33:31;;;;;;;44.42;14.85;;;;;17.80;96471.00;;;;8273701;28;20198;-68
2023/10/03 07:37:34;;;;;;;43.67;15.57;;;;;17.80;96464.00;;;;8276230;28;20198;-67
2023/10/03 07:41:39;;;;;;;40.10;14.48;;;;;17.80;96471.00;;;;8271998;28;20273;-67
2023/10/03 07:45:43;;;;;;;40.63;14.63;;;;;18.10;96469.00;;;;8268131;28;20228;-70
2023/10/03 07:49:48;;;;;;;45.15;14.95;;;;;18.40;96464.00;;;;8271036;28;20733;-68
2023/10/03 07:53:52;;;;;;;39.00;14.55;;;;;18.70;96461.00;;;;8281598;28;20202;-67
2023/10/03 07:57:59;;;;;;;42.40;15.15;;;;;19.00;96466.00;;;;8276378;28;20206;-68
2023/10/03 08:02:10;;;;;;;37.70;14.00;;;;;19.30;96473.00;;;;8272233;28;20234;-69
2023/10/03 08:06:15;;;;;;;40.50;14.20;;;;;19.30;96476.00;;;;8276506;28;20743;-67
2023/10/03 08:10:19;;;;;;;36.85;13.93;;;;;19.10;96480.00;;;;8266513;28;20206;-68
2023/10/03 08:14:24;;;;;;;36.97;14.43;;;;;18.90;96477.00;;;;8278004;28;20195;-68
2023/10/03 08:18:27;;;;;;;39.33;14.73;;;;;18.80;96477.00;;;;8274447;28;20294;-67
2023/10/03 08:22:30;;;;;;;46.25;15.45;;;;;18.90;96490.00;;;;8276419;28;20261;-68
2023/10/03 08:26:33;;;;;;;35.90;14.00;;;;;19.10;96494.00;;;;8279654;28;20202;-69
2023/10/03 08:30:38;;;;;;;40.30;14.65;;;;;19.30;96476.00;;;;8272644;28;20260;-68
2023/10/03 08:34:44;;;;;;;40.72;15.40;;;;;19.70;96492.00;;;;8278893;28;20261;-67
2023/10/03 08:38:48;;;;;;;37.45;14.40;;;;;19.90;96489.00;;;;8273793;28;20213;-68
2023/10/03 08:42:55;;;;;;;35.92;13.40;;;;;20.30;96495.00;;;;8279215;28;20218;-67
2023/10/03 08:47:01;;;;;;;36.97;14.25;;;;;20.70;96489.00;;;;8278000;28;20212;-67
2023/10/03 08:51:04;;;;;;;33.88;13.57;;;;;21.00;96490.00;;;;8270499;28;20206;-67
2023/10/03 08:55:09;;;;;;;33.85;13.77;;;;;21.30;96488.00;;;;8269949;28;20211;-67
2023/10/03 08:59:15;;;;;;;32.00;13.05;;;;;21.60;96496.00;;;;8277136;28;20761;-67
2023/10/03 09:03:20;;;;;;;33.40;13.38;;;;;21.80;96489.00;;;;8275517;28;20230;-68
2023/10/03 09:07:23;;;;;;;30.30;12.82;;;;;22.10;96490.00;;;;8276759;28;20206;-68
2023/10/03 09:11:28;;;;;;;32.97;14.05;;;;;22.50;96500.00;;;;8281881;28;20631;-69
2023/10/03 09:15:37;;;;;;;34.17;12.98;;;;;23.00;96494.00;;;;8266023;28;20204;-70
2023/10/03 09:19:43;;;;;;;28.92;12.82;;;;;23.40;96502.00;;;;8268129;28;20206;-67
2023/10/03 09:24:12;;;;;;;35.42;12.63;;;;;23.80;96498.00;;;;8270335;28;20202;-67
2023/10/03 09:28:16;;;;;;;33.40;12.82;;;;;24.30;96490.00;;;;8274935;28;20201;-65
2023/10/03 09:32:23;;;;;;;30.27;13.02;;;;;24.60;96489.00;;;;8268824;28;20293;-67
2023/10/03 09:36:28;;;;;;;28.70;12.20;;;;;24.90;96485.00;;;;8275970;28;20710;-66
2023/10/03 09:40:47;;;;;;;29.63;12.07;;;;;25.10;96486.00;;;;8281161;28;20237;-66
2023/10/03 09:44:51;;;;;;;30.63;12.35;;;;;25.50;96488.00;;;;8283267;28;20201;-66
2023/10/03 09:48:55;;;;;;;27.95;11.38;;;;;25.80;96486.00;;;;8295530;28;20571;-66
2023/10/03 09:53:01;;;;;;;29.45;12.27;;;;;26.00;96480.00;;;;8281102;28;20756;-66
2023/10/03 09:57:16;;;;;;;31.38;12.65;;;;;26.40;96478.00;;;;8277505;28;20277;-66
2023/10/03 10:01:21;;;;;;;28.58;11.85;;;;;26.80;96467.00;;;;8282946;28;20222;-66
2023/10/03 10:05:28;;;;;;;25.90;11.98;;;;;27.20;96475.00;;;;8284767;28;20230;-66
2023/10/03 10:09:38;;;;;;;34.20;11.75;;;;;27.70;96477.00;;;;8279826;28;20281;-66
2023/10/03 10:14:08;;;;;;;27.92;12.40;;;;;28.10;96473.00;;;;8280992;28;20793;-67
2023/10/03 10:18:11;;;;;;;29.05;11.55;;;;;28.10;96477.00;;;;8276824;28;20198;-65
2023/10/03 10:22:14;;;;;;;26.05;11.02;;;;;27.90;96474.00;;;;8273743;28;20226;-65
2023/10/03 10:26:30;;;;;;;23.48;10.85;;;;;27.40;96470.00;;;;8278454;28;20281;-65
2023/10/03 10:30:34;;;;;;;21.50;10.20;;;;;27.40;96468.00;;;;8279848;28;20652;-65
2023/10/03 10:34:40;;;;;;;24.27;10.77;;;;;27.60;96470.00;;;;8281294;28;20635;-65
2023/10/03 10:38:53;;;;;;;26.67;9.98;;;;;27.40;96452.00;;;;8280005;28;20201;-65
2023/10/03 10:43:08;;;;;;;22.73;10.80;;;;;27.40;96450.00;;;;8282038;28;20280;-66
2023/10/03 10:47:14;;;;;;;20.52;9.43;;;;;27.30;96449.00;;;;8275696;28;20201;-65
2023/10/03 10:51:17;;;;;;;24.90;10.10;;;;;27.40;96440.00;;;;8278500;28;20206;-65
2023/10/03 10:55:22;;;;;;;20.88;9.82;;;;;27.70;96432.00;;;;8277835;28;20202;-65
2023/10/03 10:59:29;;;;;;;21.13;8.75;;;;;27.80;96431.00;;;;8279296;28;20201;-65
2023/10/03 11:03:33;;;;;;;25.30;9.48;;;;;27.90;96428.00;;;;8277569;28;20288;-66
2023/10/03 11:07:39;;;;;;;20.58;9.27;;;;;28.00;96422.00;;;;8278425;28;20210;-66
2023/10/03 11:11:44;;;;;;;18.67;8.90;;;;;28.20;96414.00;;;;8276778;28;20237;-66
2023/10/03 11:15:49;;;;;;;19.80;8.88;;;;;28.30;96409.00;;;;8279906;28;20202;-66
2023/10/03 11:19:54;;;;;;;16.95;8.15;;;;;28.40;96406.00;;;;8284010;28;20292;-66
2023/10/03 11:24:14;;;;;;;20.70;8.52;;;;;28.40;96392.00;;;;8276678;28;20735;-66
2023/10/03 11:28:18;;;;;;;17.88;7.78;;;;;28.70;96386.00;;;;8280341;28;20249;-67
2023/10/03 11:32:24;;;;;;;16.08;7.45;;;;;28.50;96377.00;;;;8275712;28;20703;-67
2023/10/03 11:36:41;;;;;;;17.08;7.97;;;;;28.30;96387.00;;;;8275526;28;20305;-67
2023/10/03 11:40:47;;;;;;;17.17;7.90;;;;;28.20;96382.00;;;;8273890;28;20318;-67
2023/10/03 11:44:58;;;;;;;15.88;7.57;;;;;28.00;96378.00;;;;8277706;28;20206;-66
2023/10/03 11:49:03;;;;;;;16.15;7.53;;;;;27.90;96383.00;;;;8278247;28;20282;-65
2023/10/03 11:53:09;;;;;;;18.40;7.75;;;;;27.90;96378.00;;;;8288587;28;21749;-65
2023/10/03 11:57:14;;;;;;;18.63;7.22;;;;;27.90;96376.00;;;;8275776;28;20242;-65
2023/10/03 12:01:17;;;;;;;18.33;7.72;;;;;27.90;96370.00;;;;8277854;28;20229;-65
2023/10/03 12:05:22;;;;;;;11.82;6.60;;;;;27.80;96362.00;;;;8273468;28;20226;-66
2023/10/03 12:09:26;;;;;;;15.90;8.05;;;;;27.70;96361.00;;;;8273122;28;22095;-66
2023/10/03 12:13:29;;;;;;;12.80;6.57;;;;;27.70;96353.00;;;;8273589;28;20852;-66
2023/10/03 12:17:32;;;;;;;11.45;6.53;;;;;27.80;96348.00;;;;8278578;28;20694;-66
2023/10/03 12:21:37;;;;;;;12.23;6.45;;;;;27.90;96339.00;;;;8285398;28;20236;-66
2023/10/03 12:25:40;;;;;;;13.88;6.45;;;;;27.90;96344.00;;;;8278523;28;20216;-67
2023/10/03 12:29:43;;;;;;;13.70;6.80;;;;;28.00;96327.00;;;;8272380;28;20321;-67
2023/10/03 12:33:46;;;;;;;12.80;6.20;;;;;28.10;96332.00;;;;8280736;28;20194;-67
2023/10/03 12:37:51;;;;;;;17.50;5.72;;;;;28.20;96326.00;;;;8280326;28;20234;-66
2023/10/03 12:41:56;;;;;;;10.63;5.65;;;;;28.20;96332.00;;;;8277848;28;20610;-67
2023/10/03 12:46:00;;;;;;;10.35;5.97;;;;;28.30;96324.00;;;;8286134;28;20202;-68
2023/10/03 12:50:03;;;;;;;10.23;6.05;;;;;28.40;96320.00;;;;8283515;28;20201;-67
2023/10/03 12:54:08;;;;;;;12.52;5.68;;;;;28.40;96324.00;;;;8270203;28;20619;-67
2023/10/03 12:58:12;;;;;;;13.43;5.85;;;;;28.40;96320.00;;;;8275470;28;20201;-69
2023/10/03 13:02:17;;;;;;;8.57;5.00;;;;;28.50;96315.00;;;;8270701;28;20653;-70
2023/10/03 13:06:20;;;;;;;10.48;5.20;;;;;28.40;96300.00;;;;8269097;28;20207;-69
2023/10/03 13:10:25;;;;;;;11.10;5.88;;;;;28.40;96308.00;;;;8271372;28;20285;-69
2023/10/03 13:14:28;;;;;;;8.68;5.18;;;;;28.40;96312.00;;;;8283062;28;20226;-71
2023/10/03 13:18:32;;;;;;;12.60;5.53;;;;;28.40;96315.00;;;;8278473;28;20701;-71
2023/10/03 13:22:35;;;;;;;10.73;4.95;;;;;28.30;96318.00;;;;8283188;28;20236;-68
2023/10/03 13:26:41;;;;;;;9.15;5.18;;;;;28.30;96315.00;;;;8285175;28;20312;-67
2023/10/03 13:30:46;;;;;;;8.73;5.30;;;;;28.20;96314.00;;;;8282432;28;20256;-67
2023/10/03 13:34:49;;;;;;;10.68;5.15;;;;;28.30;96317.00;;;;8285791;28;20213;-68
2023/10/03 13:38:54;;;;;;;9.02;4.78;;;;;28.30;96314.00;;;;8282825;28;20294;-68
2023/10/03 13:43:00;;;;;;;11.63;5.22;;;;;28.30;96309.00;;;;8276824;28;20277;-66
2023/10/03 13:47:04;;;;;;;11.82;5.07;;;;;28.40;96311.00;;;;8289065;28;20206;-67
2023/10/03 13:51:07;;;;;;;9.60;5.40;;;;;28.40;96316.00;;;;8282059;28;20206;-67
2023/10/03 13:55:11;;;;;;;9.95;5.38;;;;;28.40;96313.00;;;;8296639;28;20209;-66
2023/10/03 13:59:15;;;;;;;9.18;5.43;;;;;28.40;96322.00;;;;8288513;28;20202;-67
2023/10/03 14:03:19;;;;;;;9.70;5.63;;;;;28.40;96321.00;;;;8281761;28;20234;-67
2023/10/03 14:07:23;;;;;;;8.95;5.13;;;;;28.50;96316.00;;;;8289953;28;20206;-66
2023/10/03 14:11:27;;;;;;;10.63;4.95;;;;;28.50;96301.00;;;;8287555;28;20296;-66
2023/10/03 14:15:33;;;;;;;9.10;5.55;;;;;28.40;96302.00;;;;8282388;28;20215;-66
2023/10/03 14:19:38;;;;;;;9.70;5.35;;;;;28.40;96295.00;;;;8291614;28;20228;-67
2023/10/03 14:23:41;;;;;;;8.88;5.32;;;;;28.40;96301.00;;;;8283773;28;20265;-67
2023/10/03 14:27:44;;;;;;;10.18;4.60;;;;;28.40;96299.00;;;;8285961;28;20233;-66
2023/10/03 14:31:49;;;;;;;9.77;5.35;;;;;28.50;96304.00;;;;8275598;28;20203;-67
2023/10/03 14:35:52;;;;;;;9.27;5.68;;;;;28.50;96303.00;;;;8285550;28;20291;-67
2023/10/03 14:39:56;;;;;;;11.40;5.38;;;;;28.50;96297.00;;;;8280970;28;20202;-67
2023/10/03 14:43:59;;;;;;;7.95;4.93;;;;;28.50;96290.00;;;;8281185;28;20253;-66
2023/10/03 14:48:06;;;;;;;8.82;4.63;;;;;28.50;96291.00;;;;8285717;28;20209;-67
2023/10/03 14:52:09;;;;;;;14.98;6.22;;;;;28.40;96291.00;;;;8281937;28;20198;-67
2023/10/03 14:56:12;;;;;;;13.07;5.10;;;;;28.30;96292.00;;;;8282579;28;20289;-66
2023/10/03 15:00:17;;;;;;;9.07;5.15;;;;;28.20;96307.00;;;;8287261;28;20198;-67
2023/10/03 15:04:23;;;;;;;12.35;5.85;;;;;28.00;96308.00;;;;8293454;28;20257;-67
2023/10/03 15:08:27;;;;;;;12.23;6.00;;;;;27.90;96312.00;;;;8295130;28;20202;-67
2023/10/03 15:12:30;;;;;;;12.30;5.65;;;;;27.80;96323.00;;;;8276647;28;20277;-67
2023/10/03 15:16:33;;;;;;;7.50;4.80;;;;;27.60;96325.00;;;;8278316;28;20767;-67
2023/10/03 15:20:38;;;;;;;11.27;5.72;;;;;27.40;96321.00;;;;8284951;28;20607;-67
2023/10/03 15:24:41;;;;;;;16.35;5.80;;;;;27.30;96328.00;;;;8295300;28;20653;-68
2023/10/03 15:28:45;;;;;;;11.55;5.40;;;;;27.20;96331.00;;;;8290096;28;20198;-68
2023/10/03 15:32:48;;;;;;;10.13;5.30;;;;;27.20;96338.00;;;;8280172;28;20973;-68
2023/10/03 15:36:53;;;;;;;8.35;4.82;;;;;27.20;96338.00;;;;8282529;28;20849;-68
2023/10/03 15:40:56;;;;;;;13.02;5.43;;;;;27.20;96360.00;;;;8279185;28;20304;-67
2023/10/03 15:45:04;;;;;;;13.55;6.07;;;;;27.20;96361.00;;;;8279245;28;20230;-68
2023/10/03 15:49:13;;;;;;;10.30;6.10;;;;;27.00;96368.00;;;;8281522;28;20206;-67
2023/10/03 15:53:19;;;;;;;12.45;5.20;;;;;26.80;96369.00;;;;8282423;28;20216;-68
2023/10/03 15:57:22;;;;;;;9.32;5.38;;;;;26.60;96375.00;;;;8282859;28;20202;-68
2023/10/03 16:01:26;;;;;;;12.15;5.60;;;;;26.30;96380.00;;;;8279461;28;20194;-68
2023/10/03 16:05:31;;;;;;;9.43;5.65;;;;;26.10;96381.00;;;;8270069;28;20226;-67
2023/10/03 16:09:35;;;;;;;15.68;6.47;;;;;25.80;96376.00;;;;8266669;28;20703;-67
2023/10/03 16:13:39;;;;;;;9.82;5.45;;;;;25.60;96381.00;;;;8275017;28;20285;-68
2023/10/03 16:17:42;;;;;;;7.53;5.55;;;;;25.40;96394.00;;;;8283052;28;20209;-69
2023/10/03 16:21:45;;;;;;;12.27;5.45;;;;;25.20;96396.00;;;;8276106;28;20944;-69
2023/10/03 16:25:51;;;;;;;10.85;5.43;;;;;25.10;96390.00;;;;8276164;28;20321;-68
2023/10/03 16:29:54;;;;;;;10.60;5.93;;;;;24.90;96393.00;;;;8277306;28;20198;-69
2023/10/03 16:33:58;;;;;;;11.85;5.18;;;;;24.70;96395.00;;;;8268890;28;20202;-68
2023/10/03 16:38:01;;;;;;;12.07;5.85;;;;;24.60;96411.00;;;;8277143;28;20289;-70
2023/10/03 16:42:06;;;;;;;10.88;5.90;;;;;24.50;96424.00;;;;8279403;28;20924;-68
2023/10/03 16:46:10;;;;;;;9.50;5.72;;;;;24.40;96427.00;;;;8277565;28;20232;-69
2023/10/03 16:50:13;;;;;;;10.32;5.10;;;;;24.30;96429.00;;;;8274774;28;20293;-68
2023/10/03 16:54:16;;;;;;;9.43;5.85;;;;;24.20;96444.00;;;;8276960;28;20726;-68
2023/10/03 16:58:21;;;;;;;11.48;5.53;;;;;24.10;96451.00;;;;8282366;28;20202;-68
2023/10/03 17:02:24;;;;;;;10.07;5.43;;;;;24.00;96454.00;;;;8280135;28;20337;-68
2023/10/03 17:06:27;;;;;;;13.15;5.90;;;;;23.90;96441.00;;;;8269060;28;20238;-68
2023/10/03 17:10:33;;;;;;;8.65;5.38;;;;;23.80;96442.00;;;;8269461;28;20208;-72
2023/10/03 17:14:38;;;;;;;12.02;5.32;;;;;23.70;96443.00;;;;8263964;28;20203;-73
2023/10/03 17:18:42;;;;;;;9.40;5.05;;;;;23.60;96439.00;;;;8269104;28;20554;-73
2023/10/03 17:22:46;;;;;;;12.38;5.57;;;;;23.60;96462.00;;;;8275637;28;20218;-73
2023/10/03 17:26:50;;;;;;;11.10;5.45;;;;;23.60;96468.00;;;;8274957;28;20300;-74
2023/10/03 17:30:55;;;;;;;8.75;4.40;;;;;23.50;96472.00;;;;8270133;28;20199;-73
2023/10/03 17:34:58;;;;;;;11.00;4.80;;;;;23.50;96491.00;;;;8271212;28;20205;-73
2023/10/03 17:39:07;;;;;;;9.32;4.32;;;;;23.50;96498.00;;;;8261059;28;20751;-72
2023/10/03 17:43:11;;;;;;;6.88;3.85;;;;;23.60;96572.00;;;;8272875;28;20226;-72
2023/10/03 17:47:17;;;;;;;8.40;2.03;;;;;23.30;96617.00;;;;8269744;28;20297;-73
2023/10/03 17:51:20;;;;;;;10.38;2.05;;;;;21.50;96642.00;;;;8266419;28;20284;-69
2023/10/03 17:55:24;;;;;;;9.20;2.13;;;;;20.00;96672.00;;;;8265691;28;20240;-71
2023/10/03 17:59:28;;;;;;;5.00;1.70;;;;;19.20;96711.00;;;;8280783;28;20200;-70
2023/10/03 18:03:36;;;;;;;5.35;1.90;;;;;18.80;96688.00;;;;8276594;28;20230;-75
2023/10/03 18:07:41;;;;;;;4.40;1.70;;;;;18.40;96728.00;;;;8280774;28;20203;-71
2023/10/03 18:11:46;;;;;;;5.60;2.00;;;;;18.10;96747.00;;;;8277142;28;20298;-75
2023/10/03 18:15:49;;;;;;;4.80;1.83;;;;;18.00;96757.00;;;;8279195;28;20191;-73
2023/10/03 18:19:54;;;;;;;1.83;1.70;;;;;17.90;96791.00;;;;8279554;28;21732;-72
2023/10/03 18:23:57;;;;;;;2.50;1.20;;;;;17.60;96811.00;;;;8278957;28;20313;-71
2023/10/03 18:28:00;;;;;;;3.00;1.38;;;;;17.30;96841.00;;;;8280629;28;20328;-71
2023/10/03 18:32:05;;;;;;;4.13;1.60;;;;;17.00;96849.00;;;;8277303;28;20703;-70
2023/10/03 18:36:09;;;;;;;2.88;1.70;;;;;16.70;96832.00;;;;8279823;28;20222;-69
2023/10/03 18:40:16;;;;;;;2.90;1.63;;;;;16.50;96853.00;;;;8278752;28;20194;-70
2023/10/03 18:44:20;;;;;;;2.05;1.73;;;;;16.30;96875.00;;;;8271621;28;20357;-71
2023/10/03 18:48:23;;;;;;;1.90;1.77;;;;;16.10;96865.00;;;;8289057;28;20676;-71
2023/10/03 18:52:28;;;;;;;2.05;1.45;;;;;16.00;96870.00;;;;8277899;28;20647;-71
2023/10/03 18:56:32;;;;;;;2.05;1.60;;;;;15.70;96890.00;;;;8278880;28;20194;-71
2023/10/03 19:00:35;;;;;;;2.30;1.30;;;;;15.60;96900.00;;;;8281142;28;20640;-70
2023/10/03 19:04:39;;;;;;;1.65;1.45;;;;;15.50;96914.00;;;;8279123;28;20257;-70
2023/10/03 19:08:44;;;;;;;1.70;1.60;;;;;15.30;96919.00;;;;8275466;28;20611;-70
2023/10/03 19:12:48;;;;;;;4.97;1.92;;;;;15.20;96926.00;;;;8283889;28;20857;-72
2023/10/03 19:16:51;;;;;;;2.65;2.00;;;;;15.10;96948.00;;;;8288713;28;20281;-73
2023/10/03 19:20:57;;;;;;;2.60;1.80;;;;;15.10;96953.00;;;;8276532;28;20229;-71
2023/10/03 19:25:10;;;;;;;3.58;1.63;;;;;15.00;96945.00;;;;8272960;28;20230;-71
2023/10/03 19:29:14;;;;;;;2.60;1.90;;;;;14.90;96968.00;;;;8277305;28;20210;-71
2023/10/03 19:33:18;;;;;;;1.83;1.73;;;;;14.90;96971.00;;;;8269812;28;20202;-72
2023/10/03 19:37:21;;;;;;;3.40;1.73;;;;;14.80;96979.00;;;;8279630;28;20251;-73
2023/10/03 19:41:26;;;;;;;1.70;1.60;;;;;14.70;96991.00;;;;8276364;28;20210;-72
2023/10/03 19:45:29;;;;;;;3.58;2.10;;;;;14.70;97016.00;;;;8270891;28;20226;-72
2023/10/03 19:49:34;;;;;;;4.05;2.03;;;;;14.70;97007.00;;;;8270020;28;20265;-74
2023/10/03 19:53:38;;;;;;;2.00;1.90;;;;;14.70;97033.00;;;;8273118;28;20201;-73
2023/10/03 19:57:42;;;;;;;4.03;2.20;;;;;14.70;97043.00;;;;8274958;28;20206;-72
2023/10/03 20:01:45;;;;;;;3.20;2.17;;;;;14.80;97061.00;;;;8273381;28;20301;-74
2023/10/03 20:05:49;;;;;;;4.15;2.58;;;;;14.80;97077.00;;;;8269762;28;20233;-74